createdAt,value
2018-11-29T00:01:19.692Z,74.87
2018-11-29T00:03:49.184Z,74.51
2018-11-29T00:06:18.641Z,74.12
2018-11-29T00:08:48.114Z,74.15
2018-11-29T00:11:17.513Z,74.45
2018-11-29T00:13:46.941Z,74.66
2018-11-29T00:16:16.394Z,73.95
2018-11-29T00:18:45.802Z,73.84
2018-11-29T00:21:15.211Z,74.48
2018-11-29T00:23:44.627Z,75.74
2018-11-29T00:26:14.082Z,76.65
2018-11-29T00:28:43.495Z,77.48
2018-11-29T00:31:12.982Z,78.03
2018-11-29T00:33:42.481Z,79.16
2018-11-29T00:36:11.912Z,79.22
2018-11-29T00:38:41.312Z,78.51
2018-11-29T00:41:10.726Z,78.60
2018-11-29T00:43:40.164Z,78.69
2018-11-29T00:46:09.656Z,78.66
2018-11-29T00:48:39.065Z,79.10
2018-11-29T00:51:08.465Z,79.59
2018-11-29T00:53:37.934Z,78.82
2018-11-29T00:56:07.359Z,78.53
2018-11-29T00:58:36.838Z,79.42
2018-11-29T01:01:06.553Z,79.61
2018-11-29T01:03:35.940Z,78.80
2018-11-29T01:06:05.651Z,79.12
2018-11-29T01:08:35.129Z,78.50
2018-11-29T01:11:04.574Z,78.77
2018-11-29T01:13:34.008Z,78.74
2018-11-29T01:16:03.479Z,78.31
2018-11-29T01:18:32.941Z,78.83
2018-11-29T01:21:02.390Z,78.50
2018-11-29T01:23:32.109Z,78.36
2018-11-29T01:26:01.577Z,78.88
2018-11-29T01:28:31.020Z,78.59
2018-11-29T01:31:00.518Z,78.34
2018-11-29T01:33:30.077Z,78.43
2018-11-29T01:35:59.509Z,78.22
2018-11-29T01:38:28.968Z,78.61
2018-11-29T01:40:58.390Z,78.61
2018-11-29T01:43:27.793Z,79.16
2018-11-29T01:45:57.290Z,78.38
2018-11-29T01:48:26.753Z,78.99
2018-11-29T01:50:56.210Z,78.92
2018-11-29T01:53:25.762Z,78.76
2018-11-29T01:55:55.257Z,79.07
2018-11-29T01:58:24.755Z,78.81
2018-11-29T02:00:55.116Z,79.01
2018-11-29T02:03:24.649Z,78.40
2018-11-29T02:05:54.083Z,78.79
2018-11-29T02:08:23.607Z,78.94
2018-11-29T02:10:53.059Z,78.23
2018-11-29T02:13:22.509Z,78.35
2018-11-29T02:15:51.970Z,78.25
2018-11-29T02:18:21.448Z,78.28
2018-11-29T02:20:50.862Z,78.55
2018-11-29T02:23:20.370Z,78.00
2018-11-29T02:25:49.848Z,78.42
2018-11-29T02:28:19.351Z,78.26
2018-11-29T02:30:48.829Z,78.40
2018-11-29T02:33:18.315Z,78.61
2018-11-29T02:35:47.733Z,78.68
2018-11-29T02:38:17.217Z,77.54
2018-11-29T02:40:46.710Z,77.41
2018-11-29T02:43:16.181Z,77.52
2018-11-29T02:45:45.661Z,77.59
2018-11-29T02:48:15.118Z,77.33
2018-11-29T02:50:44.567Z,76.90
2018-11-29T02:53:14.015Z,76.10
2018-11-29T02:55:43.604Z,77.08
2018-11-29T02:58:13.303Z,77.27
2018-11-29T03:00:42.803Z,76.86
2018-11-29T03:03:12.240Z,77.11
2018-11-29T03:05:41.699Z,77.35
2018-11-29T03:08:11.511Z,78.59
2018-11-29T03:10:40.992Z,80.23
2018-11-29T03:13:10.440Z,82.00
2018-11-29T03:15:39.872Z,83.24
2018-11-29T03:18:09.419Z,84.28
2018-11-29T03:20:38.886Z,84.75
2018-11-29T03:23:08.345Z,85.69
2018-11-29T03:25:37.790Z,86.31
2018-11-29T03:28:07.587Z,86.13
2018-11-29T03:30:37.061Z,86.64
2018-11-29T03:33:06.624Z,87.46
2018-11-29T03:35:36.143Z,87.36
2018-11-29T03:38:05.678Z,86.73
2018-11-29T03:40:35.253Z,86.79
2018-11-29T03:43:04.675Z,87.44
2018-11-29T03:45:34.083Z,87.05
2018-11-29T03:48:03.456Z,86.93
2018-11-29T03:50:32.995Z,87.28
2018-11-29T03:53:02.376Z,87.03
2018-11-29T03:55:31.815Z,87.05
2018-11-29T03:58:01.262Z,86.58
2018-11-29T04:00:30.746Z,86.05
2018-11-29T04:03:00.166Z,86.45
2018-11-29T04:05:29.597Z,86.18
2018-11-29T04:07:59.044Z,86.57
2018-11-29T04:10:28.466Z,87.46
2018-11-29T04:12:57.937Z,88.04
2018-11-29T04:15:27.386Z,88.22
2018-11-29T04:17:56.865Z,88.36
2018-11-29T04:20:26.365Z,89.50
2018-11-29T04:22:55.762Z,89.84
2018-11-29T04:25:25.248Z,90.18
2018-11-29T04:27:54.761Z,90.01
2018-11-29T04:30:24.227Z,90.06
2018-11-29T04:32:53.684Z,90.69
2018-11-29T04:35:23.300Z,90.19
2018-11-29T04:37:52.786Z,91.03
2018-11-29T04:40:22.304Z,91.52
2018-11-29T04:42:51.857Z,91.94
2018-11-29T04:45:21.700Z,91.23
2018-11-29T04:47:51.239Z,91.12
2018-11-29T04:50:20.648Z,92.01
2018-11-29T04:52:50.270Z,92.22
2018-11-29T04:55:19.742Z,92.09
2018-11-29T04:57:49.194Z,92.44
2018-11-29T05:00:18.697Z,93.07
2018-11-29T05:02:48.167Z,92.95
2018-11-29T05:05:17.619Z,92.79
2018-11-29T05:07:47.545Z,92.49
2018-11-29T05:10:17.876Z,93.33
2018-11-29T05:12:48.140Z,92.80
2018-11-29T05:15:17.576Z,93.67
2018-11-29T05:17:47.347Z,93.61
2018-11-29T05:20:16.802Z,93.59
2018-11-29T05:22:46.201Z,93.57
2018-11-29T05:25:17.036Z,93.73
2018-11-29T05:27:45.091Z,93.22
2018-11-29T05:30:15.426Z,93.57
2018-11-29T05:32:44.913Z,93.93
2018-11-29T05:35:14.489Z,94.06
2018-11-29T05:37:44.027Z,93.17
2018-11-29T05:40:14.523Z,93.77
2018-11-29T05:42:44.242Z,93.68
2018-11-29T05:45:13.667Z,93.49
2018-11-29T05:47:43.241Z,94.08
2018-11-29T05:50:13.439Z,93.93
2018-11-29T05:52:42.899Z,94.25
2018-11-29T05:55:12.936Z,94.08
2018-11-29T05:57:42.384Z,93.96
2018-11-29T06:00:14.798Z,94.29
2018-11-29T06:02:44.777Z,94.95
2018-11-29T06:05:16.122Z,94.49
2018-11-29T06:07:45.508Z,94.74
2018-11-29T06:10:17.876Z,94.96
2018-11-29T06:12:48.041Z,94.88
2018-11-29T06:15:17.457Z,94.85
2018-11-29T06:17:46.870Z,95.14
2018-11-29T06:20:18.509Z,95.08
2018-11-29T06:22:48.035Z,94.92
2018-11-29T06:25:17.759Z,95.15
2018-11-29T06:27:47.177Z,95.01
2018-11-29T06:30:19.338Z,94.86
2018-11-29T06:32:49.849Z,95.26
2018-11-29T06:35:19.382Z,94.89
2018-11-29T06:37:48.882Z,95.19
2018-11-29T06:40:18.902Z,94.92
2018-11-29T06:42:48.306Z,95.30
2018-11-29T06:45:19.370Z,94.91
2018-11-29T06:47:50.150Z,95.44
2018-11-29T06:50:19.883Z,94.85
2018-11-29T06:52:51.696Z,95.38
2018-11-29T06:55:23.734Z,95.09
2018-11-29T06:57:53.945Z,94.58
2018-11-29T07:00:29.453Z,94.98
2018-11-29T07:02:58.959Z,95.05
2018-11-29T07:05:28.449Z,95.48
2018-11-29T07:07:57.885Z,95.20
2018-11-29T07:10:32.290Z,95.15
2018-11-29T07:13:02.614Z,95.33
2018-11-29T07:15:32.001Z,95.58
2018-11-29T07:18:01.416Z,95.13
2018-11-29T07:20:31.076Z,95.22
2018-11-29T07:23:00.430Z,95.04
2018-11-29T07:25:29.841Z,95.22
2018-11-29T07:27:59.220Z,95.37
2018-11-29T07:30:28.616Z,94.98
2018-11-29T07:32:57.995Z,95.01
2018-11-29T07:35:27.428Z,95.03
2018-11-29T07:37:56.930Z,95.40
2018-11-29T07:40:26.317Z,95.12
2018-11-29T07:42:56.214Z,95.33
2018-11-29T07:45:25.601Z,95.14
2018-11-29T07:47:55.012Z,95.65
2018-11-29T07:50:24.919Z,95.00
2018-11-29T07:52:54.308Z,94.71
2018-11-29T07:55:23.795Z,95.62
2018-11-29T07:57:54.194Z,95.27
2018-11-29T08:00:23.612Z,94.78
2018-11-29T08:02:52.992Z,95.21
2018-11-29T08:05:22.437Z,95.25
2018-11-29T08:07:51.813Z,94.65
2018-11-29T08:10:21.430Z,95.03
2018-11-29T08:12:50.943Z,94.97
2018-11-29T08:15:22.270Z,95.18
2018-11-29T08:17:51.726Z,94.54
2018-11-29T08:20:22.281Z,94.74
2018-11-29T08:22:51.750Z,95.09
2018-11-29T08:25:21.185Z,94.78
2018-11-29T08:27:50.612Z,94.51
2018-11-29T08:30:20.070Z,94.73
2018-11-29T08:32:49.495Z,95.32
2018-11-29T08:35:18.941Z,95.16
2018-11-29T08:37:48.741Z,95.15
2018-11-29T08:40:19.851Z,95.12
2018-11-29T08:42:49.354Z,95.00
2018-11-29T08:45:18.835Z,95.14
2018-11-29T08:47:48.298Z,95.22
2018-11-29T08:50:17.974Z,95.03
2018-11-29T08:52:47.980Z,94.92
2018-11-29T08:55:19.943Z,95.11
2018-11-29T08:57:50.206Z,95.14
2018-11-29T09:00:22.429Z,95.44
2018-11-29T09:02:51.845Z,95.19
2018-11-29T09:05:21.424Z,95.36
2018-11-29T09:07:51.133Z,94.54
2018-11-29T09:10:22.378Z,94.92
2018-11-29T09:12:52.030Z,94.76
2018-11-29T09:15:21.489Z,94.86
2018-11-29T09:17:50.907Z,95.29
2018-11-29T09:20:22.578Z,94.81
2018-11-29T09:22:51.977Z,94.52
2018-11-29T09:25:22.858Z,94.74
2018-11-29T09:27:52.257Z,94.34
2018-11-29T09:30:23.649Z,94.15
2018-11-29T09:32:54.475Z,94.01
2018-11-29T09:35:23.934Z,93.94
2018-11-29T09:37:53.346Z,93.85
2018-11-29T09:40:22.779Z,94.06
2018-11-29T09:42:52.319Z,93.84
2018-11-29T09:45:23.008Z,94.40
2018-11-29T09:47:56.604Z,94.45
2018-11-29T09:50:26.791Z,93.80
2018-11-29T09:52:56.229Z,94.04
2018-11-29T09:55:25.699Z,93.61
2018-11-29T09:57:55.087Z,93.89
2018-11-29T10:00:28.006Z,93.23
2018-11-29T10:03:13.634Z,93.55
2018-11-29T10:05:45.044Z,93.89
2018-11-29T10:08:17.293Z,93.46
2018-11-29T10:10:46.729Z,93.50
2018-11-29T10:13:16.141Z,94.17
2018-11-29T10:15:45.538Z,94.71
2018-11-29T10:18:14.995Z,93.77
2018-11-29T10:20:44.365Z,93.24
2018-11-29T10:23:13.914Z,93.13
2018-11-29T10:25:43.383Z,94.03
2018-11-29T10:28:15.769Z,93.87
2018-11-29T10:30:53.107Z,93.96
2018-11-29T10:33:22.500Z,93.83
2018-11-29T10:35:58.717Z,94.21
2018-11-29T10:38:21.431Z,94.06
2018-11-29T10:40:50.864Z,94.33
2018-11-29T10:43:20.274Z,94.26
2018-11-29T10:45:49.692Z,94.44
2018-11-29T10:48:21.551Z,94.12
2018-11-29T10:50:51.009Z,94.41
2018-11-29T10:53:20.449Z,94.29
2018-11-29T10:55:49.895Z,94.08
2018-11-29T10:58:19.371Z,94.26
2018-11-29T11:01:56.026Z,94.31
2018-11-29T11:04:25.448Z,94.07
2018-11-29T11:06:54.859Z,94.07
2018-11-29T11:09:24.265Z,93.87
2018-11-29T11:11:53.678Z,94.14
2018-11-29T11:14:23.101Z,93.62
2018-11-29T11:16:52.513Z,94.33
2018-11-29T11:19:21.961Z,94.70
2018-11-29T11:21:51.432Z,94.58
2018-11-29T11:24:20.842Z,94.25
2018-11-29T11:26:50.312Z,94.41
2018-11-29T11:29:20.311Z,94.35
2018-11-29T11:31:49.695Z,94.40
2018-11-29T11:34:19.132Z,94.74
2018-11-29T11:36:48.504Z,94.58
2018-11-29T11:39:17.970Z,94.17
2018-11-29T11:41:47.372Z,94.20
2018-11-29T11:44:16.762Z,94.37
2018-11-29T11:46:46.174Z,94.31
2018-11-29T11:49:15.560Z,94.29
2018-11-29T11:51:44.943Z,94.65
2018-11-29T11:54:14.311Z,95.01
2018-11-29T11:56:43.730Z,94.90
2018-11-29T11:59:13.165Z,94.52
2018-11-29T12:01:42.582Z,94.71
2018-11-29T12:04:12.019Z,94.62
2018-11-29T12:06:41.464Z,94.55
2018-11-29T12:09:10.880Z,94.82
2018-11-29T12:11:40.350Z,94.94
2018-11-29T12:14:09.807Z,94.81
2018-11-29T12:16:39.383Z,94.46
2018-11-29T12:19:08.830Z,95.00
2018-11-29T12:21:38.331Z,95.32
2018-11-29T12:24:08.062Z,95.58
2018-11-29T12:26:37.514Z,95.13
2018-11-29T12:29:07.989Z,95.27
2018-11-29T12:31:37.418Z,95.49
2018-11-29T12:34:07.198Z,94.98
2018-11-29T12:36:36.624Z,95.28
2018-11-29T12:39:10.102Z,95.31
2018-11-29T12:41:39.514Z,95.70
2018-11-29T12:44:08.945Z,95.41
2018-11-29T12:46:38.410Z,95.61
2018-11-29T12:49:07.855Z,95.85
2018-11-29T12:51:37.312Z,95.42
2018-11-29T12:54:07.681Z,95.90
2018-11-29T12:56:37.089Z,95.73
2018-11-29T12:59:06.762Z,95.96
2018-11-29T13:01:36.220Z,95.89
2018-11-29T13:04:05.704Z,95.67
2018-11-29T13:06:35.169Z,95.90
2018-11-29T13:09:09.773Z,95.57
2018-11-29T13:11:39.239Z,95.26
2018-11-29T13:14:08.698Z,95.21
2018-11-29T13:16:38.095Z,95.97
2018-11-29T13:19:07.614Z,95.44
2018-11-29T13:21:37.119Z,95.43
2018-11-29T13:24:06.625Z,95.68
2018-11-29T13:26:36.150Z,95.30
2018-11-29T13:29:05.722Z,95.61
2018-11-29T13:31:35.122Z,95.66
2018-11-29T13:34:04.536Z,95.61
2018-11-29T13:36:33.972Z,95.67
2018-11-29T13:39:03.630Z,95.50
2018-11-29T13:41:33.069Z,95.74
2018-11-29T13:44:02.481Z,96.13
2018-11-29T13:46:31.897Z,95.64
2018-11-29T13:49:01.429Z,95.49
2018-11-29T13:51:30.841Z,95.70
2018-11-29T13:54:01.169Z,95.84
2018-11-29T13:56:29.723Z,95.43
2018-11-29T13:58:59.121Z,95.52
2018-11-29T14:01:28.571Z,95.62
2018-11-29T14:03:58.037Z,95.20
2018-11-29T14:06:27.471Z,95.52
2018-11-29T14:08:56.928Z,95.48
2018-11-29T14:11:26.381Z,95.89
2018-11-29T14:13:55.789Z,95.84
2018-11-29T14:16:25.197Z,95.64
2018-11-29T14:18:54.657Z,95.30
2018-11-29T14:21:24.130Z,94.84
2018-11-29T14:23:53.508Z,94.82
2018-11-29T14:26:22.927Z,94.97
2018-11-29T14:28:52.329Z,95.04
2018-11-29T14:31:21.769Z,95.37
2018-11-29T14:33:51.178Z,95.05
2018-11-29T14:36:20.593Z,94.77
2018-11-29T14:38:50.022Z,95.16
2018-11-29T14:41:19.666Z,94.33
2018-11-29T14:43:49.098Z,94.49
2018-11-29T14:46:18.539Z,94.67
2018-11-29T14:48:48.025Z,94.81
2018-11-29T14:51:17.400Z,94.55
2018-11-29T14:53:46.849Z,94.06
2018-11-29T14:56:16.280Z,94.36
2018-11-29T14:58:46.102Z,94.20
2018-11-29T15:01:15.634Z,94.40
2018-11-29T15:03:45.110Z,93.93
2018-11-29T15:06:14.589Z,93.51
2018-11-29T15:08:44.006Z,93.65
2018-11-29T15:11:13.461Z,93.54
2018-11-29T15:13:42.925Z,93.77
2018-11-29T15:16:12.434Z,93.83
2018-11-29T15:18:41.968Z,93.17
2018-11-29T15:21:11.413Z,93.21
2018-11-29T15:23:40.842Z,92.93
2018-11-29T15:26:10.444Z,93.54
2018-11-29T15:28:39.844Z,93.12
2018-11-29T15:31:09.319Z,92.85
2018-11-29T15:33:38.780Z,93.27
2018-11-29T15:36:08.173Z,93.32
2018-11-29T15:38:37.669Z,93.13
2018-11-29T15:41:07.221Z,93.35
2018-11-29T15:43:36.997Z,93.02
2018-11-29T15:46:06.926Z,92.36
2018-11-29T15:48:36.429Z,92.85
2018-11-29T15:51:06.479Z,92.42
2018-11-29T15:53:36.004Z,92.93
2018-11-29T15:56:05.606Z,92.48
2018-11-29T15:58:35.105Z,92.65
2018-11-29T16:01:04.706Z,93.07
2018-11-29T16:03:34.131Z,92.13
2018-11-29T16:06:03.617Z,92.04
2018-11-29T16:08:33.155Z,91.87
2018-11-29T16:11:02.682Z,92.33
2018-11-29T16:13:32.215Z,92.88
2018-11-29T16:16:01.691Z,91.71
2018-11-29T16:18:31.192Z,92.22
2018-11-29T16:21:00.703Z,91.90
2018-11-29T16:23:30.234Z,92.22
2018-11-29T16:25:59.760Z,92.26
2018-11-29T16:28:29.329Z,91.23
2018-11-29T16:30:59.805Z,91.54
2018-11-29T16:33:33.886Z,91.70
2018-11-29T16:36:03.450Z,91.71
2018-11-29T16:38:33.280Z,90.95
2018-11-29T16:41:02.747Z,91.18
2018-11-29T16:43:32.293Z,91.20
2018-11-29T16:46:01.710Z,90.92
2018-11-29T16:48:31.183Z,90.88
2018-11-29T16:51:01.710Z,91.00
2018-11-29T16:53:31.208Z,90.69
2018-11-29T16:56:01.025Z,90.87
2018-11-29T16:58:31.684Z,91.00
2018-11-29T17:01:01.460Z,91.09
2018-11-29T17:03:32.126Z,90.95
2018-11-29T17:06:02.499Z,90.86
2018-11-29T17:08:34.045Z,90.65
2018-11-29T17:11:04.063Z,90.74
2018-11-29T17:13:34.809Z,90.86
2018-11-29T17:16:04.997Z,91.00
2018-11-29T17:18:35.060Z,91.21
2018-11-29T17:21:05.731Z,91.17
2018-11-29T17:23:35.808Z,91.03
2018-11-29T17:26:07.006Z,90.69
2018-11-29T17:28:37.037Z,90.76
2018-11-29T17:31:07.230Z,90.96
2018-11-29T17:33:37.206Z,90.68
2018-11-29T17:36:07.266Z,91.17
2018-11-29T17:38:37.594Z,89.98
2018-11-29T17:41:10.414Z,90.25
2018-11-29T17:43:40.010Z,90.24
2018-11-29T17:46:09.481Z,89.76
2018-11-29T17:48:38.975Z,90.41
2018-11-29T17:51:08.680Z,90.03
2018-11-29T17:53:39.083Z,88.99
2018-11-29T17:56:08.784Z,88.63
2018-11-29T17:58:39.041Z,88.79
2018-11-29T18:01:08.853Z,89.03
2018-11-29T18:03:38.460Z,88.71
2018-11-29T18:06:08.605Z,89.70
2018-11-29T18:08:38.149Z,89.24
2018-11-29T18:11:09.478Z,89.26
2018-11-29T18:13:41.069Z,90.28
2018-11-29T18:16:10.764Z,90.17
2018-11-29T18:18:40.436Z,90.70
2018-11-29T18:21:09.877Z,90.58
2018-11-29T18:23:39.318Z,90.87
2018-11-29T18:26:08.806Z,91.30
2018-11-29T18:28:38.292Z,91.10
2018-11-29T18:31:07.785Z,91.32
2018-11-29T18:33:37.243Z,91.72
2018-11-29T18:36:07.209Z,90.86
2018-11-29T18:38:36.671Z,91.03
2018-11-29T18:41:06.375Z,90.71
2018-11-29T18:43:35.942Z,90.75
2018-11-29T18:46:05.663Z,90.74
2018-11-29T18:48:35.244Z,90.50
2018-11-29T18:51:04.761Z,90.19
2018-11-29T18:53:34.470Z,90.14
2018-11-29T18:56:04.244Z,89.52
2018-11-29T18:58:33.814Z,89.06
2018-11-29T19:01:03.299Z,89.07
2018-11-29T19:03:32.814Z,88.96
2018-11-29T19:06:02.401Z,89.36
2018-11-29T19:08:31.913Z,89.06
2018-11-29T19:11:04.755Z,88.48
2018-11-29T19:13:34.421Z,89.07
2018-11-29T19:16:03.967Z,88.95
2018-11-29T19:18:33.492Z,88.39
2018-11-29T19:21:03.525Z,88.25
2018-11-29T19:23:32.986Z,88.22
2018-11-29T19:26:02.581Z,87.76
2018-11-29T19:28:32.138Z,87.92
2018-11-29T19:31:01.810Z,87.56
2018-11-29T19:33:32.024Z,87.86
2018-11-29T19:36:01.599Z,88.02
2018-11-29T19:38:31.102Z,87.86
2018-11-29T19:41:00.888Z,87.54
2018-11-29T19:43:30.432Z,87.54
2018-11-29T19:45:59.914Z,87.23
2018-11-29T19:48:29.674Z,87.04
2018-11-29T19:50:59.345Z,87.18
2018-11-29T19:53:28.998Z,87.25
2018-11-29T19:56:01.681Z,87.37
2018-11-29T19:58:31.312Z,88.00
2018-11-29T20:01:00.935Z,87.42
2018-11-29T20:03:31.099Z,87.45
2018-11-29T20:06:00.812Z,87.03
2018-11-29T20:08:30.427Z,86.86
2018-11-29T20:11:00.027Z,86.63
2018-11-29T20:13:29.738Z,86.81
2018-11-29T20:15:59.427Z,87.24
2018-11-29T20:18:29.582Z,87.37
2018-11-29T20:20:59.256Z,87.29
2018-11-29T20:23:28.955Z,87.35
2018-11-29T20:25:58.460Z,87.63
2018-11-29T20:28:28.070Z,87.19
2018-11-29T20:30:58.412Z,87.39
2018-11-29T20:33:27.949Z,87.11
2018-11-29T20:35:57.485Z,86.92
2018-11-29T20:38:27.021Z,86.69
2018-11-29T20:40:56.668Z,86.79
2018-11-29T20:43:26.487Z,86.49
2018-11-29T20:45:56.977Z,86.63
2018-11-29T20:48:31.167Z,86.58
2018-11-29T20:51:01.689Z,85.56
2018-11-29T20:53:34.798Z,85.54
2018-11-29T20:56:06.310Z,85.83
2018-11-29T20:58:35.760Z,86.06
2018-11-29T21:01:06.143Z,86.03
2018-11-29T21:03:35.653Z,85.53
2018-11-29T21:06:06.070Z,85.25
2018-11-29T21:08:35.610Z,85.03
2018-11-29T21:11:05.301Z,84.88
2018-11-29T21:13:34.924Z,84.88
2018-11-29T21:16:04.432Z,85.03
2018-11-29T21:18:34.416Z,84.93
2018-11-29T21:21:04.650Z,84.69
2018-11-29T21:23:34.774Z,84.81
2018-11-29T21:26:04.355Z,84.59
2018-11-29T21:28:36.076Z,84.28
2018-11-29T21:31:14.943Z,84.66
2018-11-29T21:33:44.772Z,84.98
2018-11-29T21:36:14.673Z,84.81
2018-11-29T21:38:44.971Z,85.02
2018-11-29T21:41:14.611Z,85.19
2018-11-29T21:43:45.054Z,84.82
2018-11-29T21:46:14.864Z,84.51
2018-11-29T21:48:44.438Z,85.50
2018-11-29T21:51:13.916Z,84.91
2018-11-29T21:53:43.400Z,84.86
2018-11-29T21:56:12.997Z,85.14
2018-11-29T21:58:42.525Z,84.84
2018-11-29T22:01:12.290Z,85.61
2018-11-29T22:03:41.791Z,85.80
2018-11-29T22:06:11.349Z,85.41
2018-11-29T22:08:41.021Z,85.04
2018-11-29T22:11:10.604Z,85.49
2018-11-29T22:13:40.164Z,85.27
2018-11-29T22:16:10.020Z,85.41
2018-11-29T22:18:39.601Z,85.42
2018-11-29T22:21:09.537Z,85.46
2018-11-29T22:23:40.727Z,85.32
2018-11-29T22:26:14.347Z,85.21
2018-11-29T22:28:44.276Z,85.08
2018-11-29T22:31:13.769Z,85.47
2018-11-29T22:33:44.289Z,85.25
2018-11-29T22:36:14.296Z,85.67
2018-11-29T22:38:45.351Z,86.03
2018-11-29T22:41:15.148Z,86.12
2018-11-29T22:43:44.602Z,85.90
2018-11-29T22:46:14.166Z,85.97
2018-11-29T22:48:43.778Z,85.94
2018-11-29T22:51:13.381Z,85.15
2018-11-29T22:53:42.979Z,85.21
2018-11-29T22:56:12.521Z,85.13
2018-11-29T22:58:42.078Z,84.63
2018-11-29T23:01:16.732Z,85.16
2018-11-29T23:03:46.296Z,84.65
2018-11-29T23:06:15.796Z,84.44
2018-11-29T23:08:45.333Z,84.41
2018-11-29T23:11:15.066Z,83.91
2018-11-29T23:13:44.714Z,84.31
2018-11-29T23:16:14.244Z,84.27
2018-11-29T23:18:43.876Z,83.71
2018-11-29T23:21:17.344Z,84.42
2018-11-29T23:23:47.254Z,84.29
2018-11-29T23:26:16.754Z,84.51
2018-11-29T23:28:46.302Z,84.00
2018-11-29T23:31:16.531Z,83.52
2018-11-29T23:33:46.282Z,83.57
2018-11-29T23:36:15.780Z,83.87
2018-11-29T23:38:45.431Z,83.75
2018-11-29T23:41:14.987Z,83.23
2018-11-29T23:43:44.513Z,83.42
2018-11-29T23:46:14.067Z,82.66
2018-11-29T23:48:43.601Z,82.66
2018-11-29T23:51:15.582Z,83.13
2018-11-29T23:53:45.415Z,82.50
2018-11-29T23:56:14.955Z,82.16
2018-11-29T23:58:44.459Z,81.99
